createdAt,value
2022-09-22T00:01:06.171Z,59.60
2022-09-22T00:03:37.658Z,59.60
2022-09-22T00:06:10.608Z,60.70
2022-09-22T00:08:39.882Z,60.30
2022-09-22T00:11:16.824Z,59.80
2022-09-22T00:13:46.652Z,59.60
2022-09-22T00:16:15.587Z,59.70
2022-09-22T00:18:42.427Z,59.70
2022-09-22T00:21:12.588Z,59.90
2022-09-22T00:23:40.619Z,60.00
2022-09-22T00:26:10.399Z,60.10
2022-09-22T00:28:38.655Z,60.60
2022-09-22T00:31:12.468Z,61.30
2022-09-22T00:33:41.359Z,61.40
2022-09-22T00:36:08.797Z,61.50
2022-09-22T00:38:37.127Z,61.10
2022-09-22T00:41:04.906Z,60.60
2022-09-22T00:43:36.453Z,60.30
2022-09-22T00:46:12.508Z,60.20
2022-09-22T00:48:44.640Z,60.10
2022-09-22T00:51:13.360Z,60.20
2022-09-22T00:53:40.229Z,61.20
2022-09-22T00:56:15.001Z,61.10
2022-09-22T00:58:47.580Z,62.00
2022-09-22T01:01:15.880Z,62.30
2022-09-22T01:03:43.886Z,62.60
2022-09-22T01:06:15.025Z,61.80
2022-09-22T01:08:44.600Z,62.10
2022-09-22T01:11:13.311Z,62.40
2022-09-22T01:13:52.053Z,61.90
2022-09-22T01:16:25.455Z,61.30
2022-09-22T01:19:26.396Z,61.00
2022-09-22T01:22:12.553Z,60.80
2022-09-22T01:24:58.923Z,60.60
2022-09-22T01:27:44.414Z,60.50
2022-09-22T01:30:16.450Z,60.40
2022-09-22T01:33:03.361Z,60.50
2022-09-22T01:36:07.370Z,60.80
2022-09-22T01:39:15.942Z,61.30
2022-09-22T01:42:00.559Z,60.80
2022-09-22T01:44:33.955Z,60.70
2022-09-22T01:47:11.079Z,60.70
2022-09-22T01:49:44.079Z,60.60
2022-09-22T01:52:16.712Z,60.50
2022-09-22T01:54:58.360Z,60.40
2022-09-22T01:57:51.377Z,60.40
2022-09-22T02:00:18.390Z,61.50
2022-09-22T02:02:58.066Z,62.00
2022-09-22T02:05:36.854Z,62.40
2022-09-22T02:08:09.996Z,63.00
2022-09-22T02:10:42.054Z,63.00
2022-09-22T02:13:08.814Z,62.10
2022-09-22T02:15:54.196Z,62.10
2022-09-22T02:18:27.481Z,62.70
2022-09-22T02:20:54.160Z,62.00
2022-09-22T02:23:20.860Z,61.80
2022-09-22T02:25:48.929Z,61.50
2022-09-22T02:28:20.251Z,61.20
2022-09-22T02:31:10.541Z,61.10
2022-09-22T02:33:38.518Z,61.00
2022-09-22T02:36:23.336Z,61.10
2022-09-22T02:39:00.045Z,61.00
2022-09-22T02:41:55.152Z,61.20
2022-09-22T02:44:28.773Z,61.30
2022-09-22T02:47:22.512Z,61.40
2022-09-22T02:49:50.962Z,61.40
2022-09-22T02:52:19.971Z,61.30
2022-09-22T02:54:46.786Z,61.10
2022-09-22T02:57:13.441Z,61.00
2022-09-22T02:59:40.137Z,61.00
2022-09-22T03:02:06.823Z,60.90
2022-09-22T03:04:33.536Z,60.80
2022-09-22T03:07:00.224Z,61.60
2022-09-22T03:09:26.883Z,60.80
2022-09-22T03:11:53.544Z,60.80
2022-09-22T03:14:20.169Z,60.90
2022-09-22T03:16:46.905Z,61.30
2022-09-22T03:19:13.530Z,61.50
2022-09-22T03:21:40.224Z,61.50
2022-09-22T03:24:06.976Z,61.60
2022-09-22T03:26:34.766Z,61.20
2022-09-22T03:29:03.384Z,61.20
2022-09-22T03:31:30.028Z,61.90
2022-09-22T03:33:56.782Z,62.00
2022-09-22T03:36:23.578Z,62.00
2022-09-22T03:38:51.929Z,62.40
2022-09-22T03:41:19.487Z,62.30
2022-09-22T03:43:46.140Z,63.10
2022-09-22T03:46:14.197Z,63.10
2022-09-22T03:48:44.952Z,63.20
2022-09-22T03:51:12.218Z,64.40
2022-09-22T03:53:39.026Z,64.60
2022-09-22T03:56:11.381Z,65.60
2022-09-22T03:58:38.957Z,65.80
2022-09-22T04:01:07.250Z,66.30
2022-09-22T04:03:34.921Z,65.20
2022-09-22T04:06:02.278Z,64.10
2022-09-22T04:08:28.952Z,63.80
2022-09-22T04:10:57.666Z,64.40
2022-09-22T04:13:24.357Z,64.70
2022-09-22T04:15:50.986Z,64.30
2022-09-22T04:18:17.653Z,63.90
2022-09-22T04:20:45.199Z,63.40
2022-09-22T04:23:13.202Z,63.80
2022-09-22T04:25:39.858Z,64.60
2022-09-22T04:28:07.108Z,64.40
2022-09-22T04:30:35.213Z,64.50
2022-09-22T04:33:03.302Z,64.10
2022-09-22T04:35:30.440Z,63.40
2022-09-22T04:37:58.060Z,63.10
2022-09-22T04:40:25.598Z,63.00
2022-09-22T04:42:52.353Z,62.90
2022-09-22T04:45:19.170Z,62.70
2022-09-22T04:47:47.261Z,62.50
2022-09-22T04:50:14.161Z,62.40
2022-09-22T04:52:48.678Z,62.40
2022-09-22T04:55:15.539Z,62.40
2022-09-22T04:57:43.132Z,62.20
2022-09-22T05:00:10.347Z,62.20
2022-09-22T05:02:36.979Z,62.20
2022-09-22T05:05:05.522Z,62.00
2022-09-22T05:07:32.756Z,62.00
2022-09-22T05:09:59.620Z,61.90
2022-09-22T05:12:27.064Z,61.80
2022-09-22T05:14:53.803Z,61.70
2022-09-22T05:17:20.532Z,61.80
2022-09-22T05:19:47.169Z,61.70
2022-09-22T05:22:13.794Z,61.70
2022-09-22T05:24:42.438Z,61.70
2022-09-22T05:27:09.263Z,61.70
2022-09-22T05:29:35.881Z,61.60
2022-09-22T05:32:02.977Z,61.60
2022-09-22T05:34:29.658Z,61.60
2022-09-22T05:36:56.309Z,61.60
2022-09-22T05:39:23.093Z,61.60
2022-09-22T05:41:49.913Z,61.60
2022-09-22T05:44:16.888Z,61.60
2022-09-22T05:46:43.546Z,62.80
2022-09-22T05:49:10.160Z,63.90
2022-09-22T05:51:36.797Z,64.10
2022-09-22T05:54:03.473Z,63.70
2022-09-22T05:56:31.821Z,63.10
2022-09-22T05:58:58.678Z,62.90
2022-09-22T06:01:25.409Z,62.60
2022-09-22T06:03:52.096Z,62.50
2022-09-22T06:06:18.840Z,62.80
2022-09-22T06:08:48.870Z,63.30
2022-09-22T06:11:15.880Z,64.10
2022-09-22T06:13:43.491Z,65.40
2022-09-22T06:16:10.201Z,65.30
2022-09-22T06:18:37.484Z,65.90
2022-09-22T06:21:04.402Z,65.40
2022-09-22T06:23:31.929Z,65.20
2022-09-22T06:25:59.245Z,65.50
2022-09-22T06:28:26.018Z,64.80
2022-09-22T06:30:52.679Z,64.80
2022-09-22T06:33:19.756Z,64.30
2022-09-22T06:35:46.551Z,65.40
2022-09-22T06:38:15.265Z,66.20
2022-09-22T06:40:43.054Z,65.60
2022-09-22T06:43:22.557Z,65.70
2022-09-22T06:45:51.294Z,64.80
2022-09-22T06:48:18.912Z,64.40
2022-09-22T06:50:51.674Z,64.40
2022-09-22T06:53:19.159Z,64.30
2022-09-22T06:55:46.190Z,64.40
2022-09-22T06:58:14.688Z,64.50
2022-09-22T07:00:43.562Z,64.20
2022-09-22T07:03:20.561Z,64.70
2022-09-22T07:05:54.802Z,64.50
2022-09-22T07:08:22.837Z,64.80
2022-09-22T07:10:57.794Z,65.00
2022-09-22T07:13:25.950Z,65.20
2022-09-22T07:15:52.732Z,65.00
2022-09-22T07:18:19.439Z,65.00
2022-09-22T07:20:46.517Z,65.20
2022-09-22T07:23:18.999Z,65.50
2022-09-22T07:25:59.391Z,65.20
2022-09-22T07:28:28.345Z,65.90
2022-09-22T07:31:28.593Z,66.10
2022-09-22T07:33:56.058Z,66.00
2022-09-22T07:36:26.152Z,66.20
2022-09-22T07:38:55.812Z,66.30
2022-09-22T07:41:27.394Z,66.40
2022-09-22T07:44:18.061Z,66.70
2022-09-22T07:46:45.792Z,66.70
2022-09-22T07:49:15.057Z,67.10
2022-09-22T07:51:42.125Z,67.70
2022-09-22T07:54:08.966Z,67.90
2022-09-22T07:56:40.044Z,68.80
2022-09-22T07:59:10.243Z,69.70
2022-09-22T08:01:41.974Z,69.50
2022-09-22T08:04:11.876Z,70.00
2022-09-22T08:06:38.527Z,70.60
2022-09-22T08:09:06.902Z,70.90
2022-09-22T08:11:34.095Z,70.50
2022-09-22T08:14:06.441Z,70.00
2022-09-22T08:16:35.160Z,69.80
2022-09-22T08:19:10.473Z,70.70
2022-09-22T08:21:47.712Z,70.90
2022-09-22T08:24:21.040Z,70.50
2022-09-22T08:26:50.075Z,70.80
2022-09-22T08:29:16.871Z,70.50
2022-09-22T08:31:45.404Z,70.40
2022-09-22T08:34:13.890Z,70.40
2022-09-22T08:36:42.677Z,71.10
2022-09-22T08:39:09.317Z,70.20
2022-09-22T08:42:07.227Z,70.20
2022-09-22T08:44:39.852Z,71.40
2022-09-22T08:47:13.209Z,70.60
2022-09-22T08:50:07.083Z,71.00
2022-09-22T08:52:54.512Z,70.80
2022-09-22T08:55:23.597Z,70.80
2022-09-22T08:58:08.700Z,70.90
2022-09-22T09:00:42.937Z,70.20
2022-09-22T09:03:28.835Z,70.30
2022-09-22T09:06:26.509Z,70.40
2022-09-22T09:09:36.032Z,69.60
2022-09-22T09:12:19.128Z,69.70
2022-09-22T09:15:08.625Z,69.40
2022-09-22T09:17:38.944Z,69.70
2022-09-22T09:20:17.436Z,68.70
2022-09-22T09:22:55.723Z,68.50
2022-09-22T09:25:40.387Z,69.60
2022-09-22T09:28:27.974Z,67.90
2022-09-22T09:31:04.955Z,66.80
2022-09-22T09:34:03.903Z,66.60
2022-09-22T09:36:35.094Z,67.40
2022-09-22T09:39:14.540Z,66.20
2022-09-22T09:41:43.521Z,65.80
2022-09-22T09:44:20.349Z,65.60
2022-09-22T09:47:06.554Z,65.10
2022-09-22T09:49:33.560Z,64.30
2022-09-22T09:52:07.211Z,64.40
2022-09-22T09:54:33.971Z,64.40
2022-09-22T09:57:20.479Z,64.20
2022-09-22T10:00:31.696Z,63.50
2022-09-22T10:03:16.103Z,63.40
2022-09-22T10:05:43.418Z,62.90
2022-09-22T10:08:20.833Z,62.70
2022-09-22T10:10:48.568Z,62.50
2022-09-22T10:13:34.142Z,62.60
2022-09-22T10:16:04.601Z,62.30
2022-09-22T10:18:40.198Z,61.80
2022-09-22T10:21:20.599Z,61.20
2022-09-22T10:23:48.724Z,61.50
2022-09-22T10:26:20.273Z,60.70
2022-09-22T10:29:05.917Z,60.70
2022-09-22T10:31:33.100Z,59.80
2022-09-22T10:34:00.701Z,58.80
2022-09-22T10:36:30.770Z,57.20
2022-09-22T10:38:59.787Z,56.10
2022-09-22T10:41:34.279Z,53.00
2022-09-22T10:47:23.577Z,55.80
2022-09-22T10:50:13.287Z,55.30
2022-09-22T10:52:54.680Z,54.70
2022-09-22T10:55:37.242Z,55.40
2022-09-22T10:58:07.154Z,56.00
2022-09-22T11:00:39.679Z,56.30
2022-09-22T11:03:06.289Z,56.20
2022-09-22T11:06:13.799Z,56.40
2022-09-22T11:09:14.249Z,56.20
2022-09-22T11:12:05.754Z,55.40
2022-09-22T11:15:37.631Z,55.60
2022-09-22T11:18:32.397Z,54.20
2022-09-22T11:21:42.971Z,51.20
2022-09-22T11:24:46.093Z,51.30
2022-09-22T11:27:43.033Z,53.10
2022-09-22T11:30:20.481Z,53.00
2022-09-22T11:33:04.790Z,53.60
2022-09-22T11:35:54.970Z,54.30
2022-09-22T11:38:46.893Z,54.50
2022-09-22T11:41:37.221Z,52.20
2022-09-22T11:44:39.244Z,53.60
2022-09-22T11:47:08.843Z,51.40
2022-09-22T11:49:54.932Z,49.30
2022-09-22T11:52:30.512Z,52.60
2022-09-22T11:55:18.652Z,52.30
2022-09-22T11:57:51.157Z,52.70
2022-09-22T12:00:20.966Z,53.00
2022-09-22T12:03:01.994Z,51.80
2022-09-22T12:05:41.539Z,51.00
2022-09-22T12:08:23.612Z,50.40
2022-09-22T12:10:51.991Z,49.00
2022-09-22T12:13:22.062Z,50.60
2022-09-22T12:16:05.992Z,51.80
2022-09-22T12:18:45.109Z,52.00
2022-09-22T12:21:31.018Z,51.00
2022-09-22T12:24:02.886Z,45.70
2022-09-22T12:26:33.077Z,45.90
2022-09-22T12:29:01.902Z,48.10
2022-09-22T12:31:34.955Z,49.90
2022-09-22T12:34:03.027Z,47.90
2022-09-22T12:36:37.605Z,49.10
2022-09-22T12:39:11.636Z,49.70
2022-09-22T12:41:58.159Z,49.70
2022-09-22T12:44:44.466Z,50.00
2022-09-22T12:47:23.079Z,49.60
2022-09-22T12:49:55.833Z,48.60
2022-09-22T12:52:40.648Z,50.20
2022-09-22T12:55:28.814Z,50.80
2022-09-22T12:57:57.562Z,50.10
2022-09-22T13:00:30.638Z,49.30
2022-09-22T13:03:00.446Z,47.60
2022-09-22T13:05:27.072Z,47.10
2022-09-22T13:07:55.804Z,46.50
2022-09-22T13:10:25.184Z,45.30
2022-09-22T13:13:05.698Z,47.10
2022-09-22T13:15:47.297Z,47.70
2022-09-22T13:18:29.457Z,47.70
2022-09-22T13:20:57.623Z,44.80
2022-09-22T13:23:24.321Z,46.10
2022-09-22T13:25:51.838Z,45.90
2022-09-22T13:28:23.976Z,48.30
2022-09-22T13:31:05.954Z,46.70
2022-09-22T13:33:35.159Z,42.60
2022-09-22T13:36:13.111Z,45.50
2022-09-22T13:38:43.194Z,41.60
2022-09-22T13:41:13.666Z,44.50
2022-09-22T13:43:43.099Z,42.40
2022-09-22T13:46:29.953Z,42.70
2022-09-22T13:48:58.688Z,45.20
2022-09-22T13:51:27.721Z,41.40
2022-09-22T13:53:57.551Z,43.00
2022-09-22T13:56:25.739Z,43.00
2022-09-22T13:58:56.865Z,44.10
2022-09-22T14:01:25.662Z,44.40
2022-09-22T14:03:53.565Z,41.50
2022-09-22T14:06:26.100Z,45.10
2022-09-22T14:08:53.924Z,45.70
2022-09-22T14:11:28.118Z,43.70
2022-09-22T14:13:54.919Z,39.30
2022-09-22T14:16:38.709Z,38.40
2022-09-22T14:19:44.005Z,39.60
2022-09-22T14:22:21.231Z,43.00
2022-09-22T14:24:55.485Z,43.10
2022-09-22T14:27:33.469Z,41.90
2022-09-22T14:30:00.969Z,41.80
2022-09-22T14:32:39.711Z,42.80
2022-09-22T14:35:37.640Z,41.20
2022-09-22T14:38:16.191Z,43.10
2022-09-22T14:40:54.202Z,38.40
2022-09-22T14:43:27.519Z,42.60
2022-09-22T14:46:07.333Z,43.20
2022-09-22T14:48:38.983Z,38.90
2022-09-22T14:51:08.366Z,41.10
2022-09-22T14:53:45.722Z,42.60
2022-09-22T14:56:28.166Z,38.90
2022-09-22T14:58:59.082Z,37.80
2022-09-22T15:01:48.399Z,36.00
2022-09-22T15:04:24.163Z,35.80
2022-09-22T15:06:53.214Z,36.30
2022-09-22T15:09:31.734Z,36.60
2022-09-22T15:12:00.513Z,39.30
2022-09-22T15:14:42.688Z,37.90
2022-09-22T15:17:54.086Z,40.00
2022-09-22T15:20:28.223Z,35.50
2022-09-22T15:22:55.131Z,35.00
2022-09-22T15:25:22.421Z,35.80
2022-09-22T15:27:53.249Z,37.50
2022-09-22T15:30:22.361Z,37.40
2022-09-22T15:32:49.553Z,39.40
2022-09-22T15:35:17.906Z,38.70
2022-09-22T15:37:50.013Z,36.80
2022-09-22T15:40:21.208Z,37.50
2022-09-22T15:43:09.029Z,37.80
2022-09-22T15:45:37.209Z,38.30
2022-09-22T15:48:04.240Z,39.00
2022-09-22T15:50:31.081Z,40.50
2022-09-22T15:52:57.936Z,41.60
2022-09-22T15:55:24.967Z,41.10
2022-09-22T15:57:55.268Z,40.50
2022-09-22T16:00:28.451Z,38.90
2022-09-22T16:02:55.168Z,39.70
2022-09-22T16:05:22.574Z,38.60
2022-09-22T16:07:51.602Z,40.10
2022-09-22T16:10:22.716Z,38.00
2022-09-22T16:12:49.827Z,38.90
2022-09-22T16:15:16.961Z,37.40
2022-09-22T16:17:45.716Z,36.50
2022-09-22T16:20:16.565Z,36.80
2022-09-22T16:22:45.376Z,38.40
2022-09-22T16:25:12.894Z,38.60
2022-09-22T16:27:39.568Z,39.30
2022-09-22T16:30:07.169Z,38.60
2022-09-22T16:32:33.985Z,38.00
2022-09-22T16:35:00.924Z,37.70
2022-09-22T16:37:29.192Z,37.80
2022-09-22T16:39:56.212Z,38.50
2022-09-22T16:42:23.806Z,38.30
2022-09-22T16:44:50.903Z,38.10
2022-09-22T16:47:22.692Z,37.60
2022-09-22T16:49:51.120Z,38.30
2022-09-22T16:52:20.001Z,39.70
2022-09-22T16:54:46.767Z,39.20
2022-09-22T16:57:13.537Z,39.60
2022-09-22T16:59:40.870Z,39.40
2022-09-22T17:02:10.451Z,39.70
2022-09-22T17:04:37.254Z,39.70
2022-09-22T17:07:04.111Z,40.20
2022-09-22T17:09:32.236Z,40.60
2022-09-22T17:11:58.996Z,40.40
2022-09-22T17:14:28.963Z,40.50
2022-09-22T17:16:57.679Z,40.80
2022-09-22T17:19:26.523Z,41.40
2022-09-22T17:21:55.341Z,40.80
2022-09-22T17:24:23.448Z,40.90
2022-09-22T17:26:56.381Z,40.60
2022-09-22T17:29:26.005Z,40.80
2022-09-22T17:31:57.212Z,40.90
2022-09-22T17:34:24.720Z,41.00
2022-09-22T17:36:52.441Z,41.10
2022-09-22T17:39:19.093Z,41.20
2022-09-22T17:41:47.008Z,41.40
2022-09-22T17:44:20.857Z,41.50
2022-09-22T17:47:07.881Z,41.60
2022-09-22T17:49:53.424Z,41.70
2022-09-22T17:52:29.249Z,41.70
2022-09-22T17:55:06.925Z,41.80
2022-09-22T17:57:45.176Z,42.10
2022-09-22T18:00:17.510Z,42.30
2022-09-22T18:02:44.944Z,42.40
2022-09-22T18:05:13.939Z,42.50
2022-09-22T18:07:41.147Z,42.70
2022-09-22T18:10:14.401Z,42.70
2022-09-22T18:12:41.428Z,42.90
2022-09-22T18:15:12.717Z,42.90
2022-09-22T18:17:43.846Z,43.10
2022-09-22T18:20:18.143Z,44.10
2022-09-22T18:22:47.997Z,44.70
2022-09-22T18:25:16.468Z,44.50
2022-09-22T18:27:44.146Z,44.90
2022-09-22T18:30:15.391Z,45.10
2022-09-22T18:32:42.783Z,44.80
2022-09-22T18:35:09.695Z,45.20
2022-09-22T18:37:36.330Z,45.60
2022-09-22T18:40:03.914Z,45.90
2022-09-22T18:42:32.334Z,46.10
2022-09-22T18:44:58.966Z,46.30
2022-09-22T18:47:26.216Z,46.30
2022-09-22T18:49:52.887Z,46.10
2022-09-22T18:52:24.583Z,45.80
2022-09-22T18:54:53.815Z,46.00
2022-09-22T18:57:22.649Z,46.50
2022-09-22T18:59:50.796Z,46.30
2022-09-22T19:02:22.165Z,47.00
2022-09-22T19:04:49.382Z,46.90
2022-09-22T19:07:38.907Z,47.00
2022-09-22T19:10:08.517Z,47.40
2022-09-22T19:12:39.655Z,47.20
2022-09-22T19:15:15.449Z,47.70
2022-09-22T19:17:46.501Z,47.80
2022-09-22T19:20:20.852Z,48.20
2022-09-22T19:22:49.234Z,48.80
2022-09-22T19:25:16.729Z,48.80
2022-09-22T19:27:43.480Z,48.50
2022-09-22T19:30:11.295Z,48.30
2022-09-22T19:32:38.678Z,48.60
2022-09-22T19:35:06.900Z,48.80
2022-09-22T19:37:33.615Z,48.90
2022-09-22T19:40:00.283Z,48.60
2022-09-22T19:42:28.544Z,48.90
2022-09-22T19:44:55.702Z,49.20
2022-09-22T19:47:22.602Z,49.50
2022-09-22T19:49:49.425Z,49.60
2022-09-22T19:52:16.303Z,49.70
2022-09-22T19:54:44.396Z,49.60
2022-09-22T19:57:11.201Z,49.60
2022-09-22T19:59:38.014Z,49.80
2022-09-22T20:02:05.954Z,50.10
2022-09-22T20:04:36.948Z,50.20
2022-09-22T20:07:03.765Z,50.40
2022-09-22T20:09:30.478Z,50.30
2022-09-22T20:11:57.341Z,50.90
2022-09-22T20:14:25.364Z,50.30
2022-09-22T20:16:57.202Z,50.40
2022-09-22T20:19:25.760Z,50.70
2022-09-22T20:21:54.449Z,50.90
2022-09-22T20:24:22.828Z,51.20
2022-09-22T20:26:49.912Z,51.10
2022-09-22T20:29:17.096Z,51.20
2022-09-22T20:31:44.126Z,51.10
2022-09-22T20:34:14.929Z,51.40
2022-09-22T20:36:43.210Z,51.60
2022-09-22T20:39:15.085Z,52.10
2022-09-22T20:41:43.046Z,51.90
2022-09-22T20:44:14.790Z,53.00
2022-09-22T20:46:42.958Z,53.10
2022-09-22T20:49:13.376Z,52.30
2022-09-22T20:51:41.482Z,52.20
2022-09-22T20:54:09.002Z,52.30
2022-09-22T20:56:39.406Z,52.20
2022-09-22T20:59:08.878Z,52.20
2022-09-22T21:01:35.661Z,52.30
2022-09-22T21:04:02.363Z,52.70
2022-09-22T21:06:30.853Z,52.90
2022-09-22T21:09:16.574Z,53.20
2022-09-22T21:11:43.988Z,52.90
2022-09-22T21:14:11.188Z,52.80
2022-09-22T21:16:39.864Z,52.80
2022-09-22T21:19:08.219Z,54.40
2022-09-22T21:21:39.021Z,54.20
2022-09-22T21:24:06.007Z,53.70
2022-09-22T21:26:33.155Z,53.60
2022-09-22T21:29:00.035Z,53.90
2022-09-22T21:31:27.734Z,54.40
2022-09-22T21:33:54.644Z,55.20
2022-09-22T21:36:22.782Z,55.10
2022-09-22T21:38:55.514Z,54.70
2022-09-22T21:41:24.181Z,54.50
2022-09-22T21:43:51.313Z,54.20
2022-09-22T21:46:23.836Z,54.10
2022-09-22T21:48:50.720Z,53.90
2022-09-22T21:51:20.507Z,53.90
2022-09-22T21:53:50.490Z,53.80
2022-09-22T21:56:18.369Z,53.70
2022-09-22T21:58:47.875Z,53.80
2022-09-22T22:01:21.948Z,54.00
2022-09-22T22:03:50.759Z,54.20
2022-09-22T22:06:26.169Z,54.20
2022-09-22T22:09:00.454Z,54.30
2022-09-22T22:11:39.072Z,55.10
2022-09-22T22:14:11.065Z,55.70
2022-09-22T22:16:46.023Z,54.90
2022-09-22T22:19:15.013Z,54.90
2022-09-22T22:21:42.850Z,55.70
2022-09-22T22:24:17.881Z,55.40
2022-09-22T22:26:47.025Z,55.10
2022-09-22T22:29:14.396Z,54.90
2022-09-22T22:31:42.059Z,54.80
2022-09-22T22:34:10.326Z,54.70
2022-09-22T22:36:36.997Z,54.80
2022-09-22T22:39:04.295Z,54.70
2022-09-22T22:41:31.029Z,54.60
2022-09-22T22:43:58.067Z,54.50
2022-09-22T22:46:24.904Z,54.60
2022-09-22T22:48:51.572Z,54.70
2022-09-22T22:51:22.999Z,55.30
2022-09-22T22:53:50.721Z,55.80
2022-09-22T22:56:22.669Z,57.10
2022-09-22T22:58:50.668Z,57.10
2022-09-22T23:01:23.179Z,56.20
2022-09-22T23:04:04.856Z,55.80
2022-09-22T23:06:34.477Z,55.60
2022-09-22T23:09:01.600Z,55.50
2022-09-22T23:11:30.565Z,55.40
2022-09-22T23:14:01.929Z,55.30
2022-09-22T23:16:31.028Z,55.40
2022-09-22T23:19:01.266Z,55.40
2022-09-22T23:21:30.263Z,55.40
2022-09-22T23:23:57.260Z,55.60
2022-09-22T23:26:24.045Z,55.40
2022-09-22T23:28:52.556Z,56.50
2022-09-22T23:31:21.459Z,56.70
2022-09-22T23:33:50.371Z,57.20
2022-09-22T23:36:22.749Z,58.20
2022-09-22T23:38:56.905Z,57.90
2022-09-22T23:41:23.682Z,57.20
2022-09-22T23:43:50.492Z,56.80
2022-09-22T23:46:17.467Z,56.50
2022-09-22T23:48:44.182Z,56.40
2022-09-22T23:51:10.840Z,56.20
2022-09-22T23:53:38.827Z,56.20
2022-09-22T23:56:06.754Z,56.20
2022-09-22T23:58:34.582Z,56.20
